Time;durP1;ratioP1;P1;durP2;ratioP2;P2;SDS_P1;SDS_P2;PMS_P1;PMS_P2;Temp;Humidity;BMP_temperature;BMP_pressure;BME280_temperature;BME280_humidity;BME280_pressure;Samples;Min_cycle;Max_cycle;Signal;HPM_P1;HPM_P2
2024/01/04 00:01:58;;;;;;;5.60;1.73;;;9.70;1.00;;;7.89;100.00;98824.56;4994003;28;20404;-82
2024/01/04 00:04:25;;;;;;;3.33;1.70;;;9.60;1.00;;;7.87;100.00;98798.44;4960651;28;20050;-83
2024/01/04 00:06:52;;;;;;;7.97;2.30;;;10.30;1.00;;;8.40;100.00;98892.53;4983787;28;20217;-83
2024/01/04 00:09:19;;;;;;;7.13;2.55;;;9.40;1.00;;;7.88;100.00;98828.09;4975990;28;20772;-83
2024/01/04 00:11:47;;;;;;;8.73;2.25;;;10.40;1.00;;;7.56;100.00;98783.88;4976359;28;20050;-84
2024/01/04 00:14:15;;;;;;;7.00;2.08;;;10.50;1.00;;;8.12;100.00;98863.00;4971696;28;20133;-83
2024/01/04 00:16:42;;;;;;;4.95;1.95;;;10.10;1.00;;;8.18;100.00;98881.09;4974814;28;20065;-82
2024/01/04 00:19:09;;;;;;;7.93;3.15;;;10.30;1.00;;;7.55;100.00;98770.88;4983887;28;20116;-81
2024/01/04 00:21:36;;;;;;;8.30;2.65;;;9.50;3.50;;;7.79;100.00;98837.16;4977679;28;20046;-82
2024/01/04 00:24:04;;;;;;;4.68;1.70;;;10.10;1.00;;;8.16;100.00;98882.09;4989119;28;20069;-82
2024/01/04 00:26:31;;;;;;;16.17;2.75;;;9.50;1.00;;;7.66;100.00;98821.91;4985289;28;20054;-82
2024/01/04 00:28:59;;;;;;;8.25;1.70;;;10.40;3.70;;;7.97;100.00;98855.72;4977158;28;20144;-82
2024/01/04 00:31:27;;;;;;;6.95;2.00;;;10.70;1.00;;;7.86;100.00;98833.41;4978777;28;20084;-82
2024/01/04 00:33:54;;;;;;;8.55;2.33;;;9.60;1.00;;;7.78;100.00;98825.81;4984771;28;20133;-83
2024/01/04 00:36:21;;;;;;;5.00;1.80;;;9.50;1.00;;;7.56;100.00;98778.66;4954880;28;20055;-82
2024/01/04 00:38:49;;;;;;;4.70;1.77;;;10.10;1.00;;;7.65;100.00;98788.78;4961590;28;20093;-82
2024/01/04 00:41:17;;;;;;;5.22;1.70;;;9.50;1.00;;;7.88;100.00;98826.34;4977179;28;20050;-83
2024/01/04 00:43:44;;;;;;;4.72;1.60;;;9.50;1.00;;;7.82;100.00;98834.44;4974933;28;20074;-83
2024/01/04 00:46:11;;;;;;;5.57;1.63;;;10.40;1.00;;;7.97;100.00;98856.59;4948510;28;20057;-84
2024/01/04 00:48:39;;;;;;;3.88;1.50;;;10.30;1.00;;;7.92;100.00;98846.28;4974803;28;20055;-82
2024/01/04 00:51:06;;;;;;;8.73;2.55;;;9.60;1.00;;;7.88;100.00;98826.34;4949641;28;20051;-82
2024/01/04 00:53:34;;;;;;;4.82;1.52;;;9.50;1.00;;;8.03;100.00;98845.00;4958299;28;20053;-82
2024/01/04 00:56:02;;;;;;;7.65;2.03;;;9.60;1.00;;;8.22;100.00;98894.94;4969233;28;20108;-83
2024/01/04 00:58:29;;;;;;;7.13;2.70;;;9.60;1.00;;;7.87;100.00;98848.19;4993843;28;20046;-83
2024/01/04 01:00:57;;;;;;;5.78;2.05;;;10.80;15.80;;;7.85;100.00;98854.41;4985582;28;20142;-82
2024/01/04 01:03:25;;;;;;;5.18;1.75;;;10.20;13.80;;;8.20;100.00;98896.75;4969202;28;20257;-82
2024/01/04 01:05:52;;;;;;;4.82;2.03;;;9.60;10.60;;;7.69;100.00;98817.47;4987647;28;20118;-83
2024/01/04 01:08:19;;;;;;;5.00;1.90;;;10.10;14.40;;;8.04;100.00;98873.75;4982145;28;20485;-83
2024/01/04 01:10:46;;;;;;;8.15;2.40;;;9.80;21.80;;;7.84;100.00;98845.69;4987530;28;20053;-83
2024/01/04 01:13:20;;;;;;;6.07;1.70;;;9.50;26.90;;;8.21;100.00;98915.06;4984085;28;20054;-83
2024/01/04 01:15:47;;;;;;;7.28;1.80;;;9.50;26.40;;;8.09;100.00;98891.94;4989291;28;20089;-83
2024/01/04 01:18:15;;;;;;;10.35;2.33;;;9.50;29.90;;;7.83;100.00;98877.19;4967246;28;20047;-84
2024/01/04 01:20:43;;;;;;;6.30;2.28;;;9.50;23.30;;;8.11;100.00;98937.25;4974742;28;20240;-83
2024/01/04 01:23:10;;;;;;;6.07;2.03;;;11.00;23.80;;;7.59;100.00;98817.81;4983983;28;20104;-83
2024/01/04 01:25:37;;;;;;;5.88;1.65;;;10.70;21.10;;;7.89;100.00;98864.72;4973915;28;20061;-82
2024/01/04 01:28:04;;;;;;;7.00;2.05;;;10.50;13.10;;;8.20;100.00;98913.34;4974992;28;20129;-81
2024/01/04 01:30:31;;;;;;;7.90;2.08;;;9.50;10.70;;;8.23;100.00;98908.00;4958265;28;20045;-82
2024/01/04 01:33:01;;;;;;;6.45;2.00;;;10.20;16.40;;;8.03;100.00;98886.91;4959978;28;20149;-82
2024/01/04 01:35:29;;;;;;;7.90;2.30;;;10.20;4.50;;;7.91;100.00;98862.91;4958805;28;20051;-83
2024/01/04 01:37:56;;;;;;;4.10;1.33;;;9.80;1.00;;;7.90;100.00;98861.19;4957173;28;20050;-83
2024/01/04 01:40:23;;;;;;;4.82;1.67;;;9.60;1.00;;;8.02;100.00;98893.94;4989807;28;20049;-83
2024/01/04 01:42:50;;;;;;;4.03;2.10;;;9.60;1.00;;;8.57;100.00;98974.00;4973057;28;20106;-83
2024/01/04 01:45:17;;;;;;;5.47;2.00;;;11.10;1.00;;;8.01;100.00;98880.88;4970746;28;20444;-82
2024/01/04 01:47:47;;;;;;;6.32;1.60;;;10.00;1.00;;;7.97;100.00;98880.16;4978456;28;20058;-83
2024/01/04 01:50:17;;;;;;;4.18;1.63;;;9.70;1.00;;;8.48;100.00;98958.63;4973022;28;20050;-82
2024/01/04 01:52:45;;;;;;;;;;;10.40;1.00;;;8.71;100.00;98981.38;4972105;28;20042;-83
2024/01/04 01:55:16;;;;;;;6.55;1.88;;;9.80;1.00;;;8.51;100.00;98959.41;4950476;28;20016;-82
2024/01/04 01:57:44;;;;;;;4.78;3.95;;;11.20;1.00;;;7.79;100.00;98839.78;4984602;28;20046;-83
2024/01/04 02:00:13;;;;;;;3.47;1.60;;;11.20;1.00;;;8.60;100.00;98980.91;4973737;28;20057;-82
2024/01/04 02:02:47;;;;;;;3.25;1.63;;;9.90;1.00;;;8.46;100.00;98957.84;4985588;28;20046;-83
2024/01/04 02:05:16;;;;;;;6.82;1.70;;;10.30;1.00;;;8.30;100.00;98929.59;4969480;28;20050;-82
2024/01/04 02:07:47;;;;;;;5.05;2.38;;;9.80;1.00;;;8.20;100.00;98928.22;4955735;28;20054;-83
2024/01/04 02:10:14;;;;;;;3.15;1.55;;;10.70;1.00;;;8.25;100.00;98914.94;4973966;28;20052;-81
2024/01/04 02:12:42;;;;;;;5.78;1.50;;;9.90;1.00;;;8.24;100.00;98914.06;4970571;28;20142;-85
2024/01/04 02:15:09;;;;;;;5.95;2.15;;;10.00;1.00;;;8.37;100.00;98938.06;4970340;28;20049;-83
2024/01/04 02:17:37;;;;;;;4.82;1.63;;;10.00;1.00;;;8.52;100.00;98981.22;4970052;28;20135;-81
2024/01/04 02:20:05;;;;;;;3.10;1.40;;;10.80;1.00;;;8.45;100.00;98946.47;4962878;28;20070;-82
2024/01/04 02:22:36;;;;;;;3.10;1.40;;;10.10;99.90;;;8.41;100.00;98937.03;4987693;28;20046;-83
2024/01/04 02:25:04;;;;;;;2.70;1.60;;;10.70;99.90;;;8.37;100.00;98943.31;4955320;28;20134;-84
2024/01/04 02:27:32;;;;;;;3.42;1.42;;;10.10;99.90;;;8.38;100.00;98929.28;4974003;28;20043;-83
2024/01/04 02:29:59;;;;;;;5.03;1.38;;;10.10;99.90;;;8.29;100.00;98917.38;4968778;28;20054;-84
2024/01/04 02:32:26;;;;;;;5.18;1.58;;;10.10;99.90;;;8.86;100.00;99008.75;4984777;28;20735;-83
2024/01/04 02:34:53;;;;;;;5.20;1.98;;;10.10;99.90;;;8.90;100.00;99012.13;4963809;28;20050;-84
2024/01/04 02:37:21;;;;;;;2.15;1.30;;;10.10;99.90;;;8.91;100.00;99032.19;4986082;28;20042;-84
2024/01/04 02:39:48;;;;;;;7.53;1.92;;;10.90;99.90;;;8.50;100.00;98941.94;4979247;28;20043;-83
2024/01/04 02:42:15;;;;;;;4.78;1.42;;;11.10;99.90;;;8.82;100.00;99003.69;4990020;28;20051;-83
2024/01/04 02:44:43;;;;;;;5.72;1.63;;;10.10;99.90;;;8.12;100.00;98915.41;5004773;28;20489;-82
2024/01/04 02:47:10;;;;;;;3.50;1.42;;;10.10;99.90;;;8.59;100.00;98969.59;4993068;28;20074;-83
2024/01/04 02:49:38;;;;;;;3.65;1.42;;;10.80;99.90;;;8.52;100.00;98965.47;4992546;28;20054;-82
2024/01/04 02:52:05;;;;;;;3.13;1.38;;;10.90;99.90;;;8.46;100.00;98974.41;4984678;28;20229;-82
2024/01/04 02:54:33;;;;;;;9.20;2.25;;;11.00;99.90;;;8.99;100.00;99069.50;4976805;28;20059;-82
2024/01/04 02:57:00;;;;;;;3.45;1.50;;;10.70;99.90;;;8.86;100.00;99066.47;4991990;28;20054;-82
2024/01/04 02:59:27;;;;;;;3.97;1.23;;;10.60;1.00;;;8.86;100.00;99057.75;4992701;28;20556;-82
2024/01/04 03:01:54;;;;;;;5.60;1.60;;;10.00;1.00;;;8.34;100.00;98993.19;4982789;28;20055;-81
2024/01/04 03:04:22;;;;;;;4.28;1.45;;;10.00;1.00;;;8.38;100.00;99006.13;4960524;28;20048;-82
2024/01/04 03:06:50;;;;;;;2.63;1.20;;;9.40;1.00;;;8.32;100.00;98998.50;4975731;28;20101;-82
2024/01/04 03:09:17;;;;;;;4.13;1.55;;;10.00;1.00;;;8.26;100.00;99014.44;4991176;28;20050;-82
2024/01/04 03:11:45;;;;;;;2.97;1.45;;;10.70;1.00;;;8.85;100.00;99090.97;4976188;28;20061;-82
2024/01/04 03:14:13;;;;;;;4.03;1.40;;;9.60;1.00;;;8.75;100.00;99097.50;4992281;28;20047;-82
2024/01/04 03:16:40;;;;;;;3.08;1.50;;;10.80;1.00;;;8.58;100.00;99067.47;4992783;28;20061;-82
2024/01/04 03:19:07;;;;;;;5.38;1.60;;;10.90;1.00;;;8.74;100.00;99072.16;4976071;28;20042;-82
2024/01/04 03:21:35;;;;;;;3.45;1.20;;;11.20;1.00;;;8.90;100.00;99090.81;4975675;28;20074;-82
2024/01/04 03:24:02;;;;;;;4.07;1.67;;;10.00;1.00;;;8.67;100.00;99087.28;4967651;28;20086;-83
2024/01/04 03:26:29;;;;;;;3.65;1.70;;;10.00;1.00;;;8.28;100.00;99023.13;4972372;28;20042;-84
2024/01/04 03:28:56;;;;;;;2.15;1.13;;;9.90;1.00;;;8.42;100.00;99061.94;4967325;28;20490;-83
2024/01/04 03:31:23;;;;;;;3.72;2.00;;;10.60;1.00;;;8.16;100.00;99011.28;4975560;28;20137;-84
2024/01/04 03:33:51;;;;;;;3.95;1.60;;;10.50;1.00;;;8.68;100.00;99103.88;4974773;28;20046;-84
2024/01/04 03:36:21;;;;;;;4.43;1.58;;;10.40;1.00;;;8.90;100.00;99130.16;4971660;28;20719;-82
2024/01/04 03:38:48;;;;;;;4.70;1.60;;;10.40;1.00;;;8.87;100.00;99131.13;4973124;28;20081;-83
2024/01/04 03:41:15;;;;;;;4.40;1.50;;;10.80;1.00;;;8.73;100.00;99096.69;4992633;28;20053;-81
2024/01/04 03:43:43;;;;;;;1.65;1.33;;;10.90;1.00;;;7.84;100.00;98975.78;4983037;28;20043;-83
2024/01/04 03:46:10;;;;;;;4.22;1.50;;;10.20;1.00;;;8.24;100.00;99045.09;4967755;28;20072;-83
2024/01/04 03:48:39;;;;;;;6.78;1.55;;;10.90;1.00;;;8.43;100.00;99087.22;4975366;28;20078;-83
2024/01/04 03:51:07;;;;;;;4.90;1.70;;;9.90;1.00;;;8.18;100.00;99053.19;4992756;28;20053;-82
2024/01/04 03:53:34;;;;;;;5.50;1.63;;;9.70;1.00;;;8.22;100.00;99067.88;4992303;28;20081;-82
2024/01/04 03:56:01;;;;;;;6.97;1.48;;;10.60;1.00;;;8.40;100.00;99103.06;4967477;28;20050;-83
2024/01/04 03:58:28;;;;;;;3.40;1.75;;;10.90;1.00;;;7.98;100.00;99036.41;4993819;28;20397;-82
2024/01/04 04:00:55;;;;;;;7.63;2.05;;;10.60;1.00;;;8.25;100.00;99074.78;4993795;28;20522;-84
2024/01/04 04:03:22;;;;;;;4.63;1.48;;;9.90;1.00;;;8.04;100.00;99051.03;4974780;28;20097;-83
2024/01/04 04:05:50;;;;;;;5.47;1.73;;;9.90;1.00;;;7.98;100.00;99051.25;4962608;28;20099;-83
2024/01/04 04:08:17;;;;;;;5.40;1.83;;;10.00;1.00;;;8.75;100.00;99192.75;4995433;28;20042;-82
2024/01/04 04:10:45;;;;;;;5.72;1.83;;;10.00;1.00;;;8.63;100.00;99148.59;4980268;28;20060;-84
2024/01/04 04:13:12;;;;;;;7.55;2.50;;;10.60;1.00;;;8.11;100.00;99083.97;4979927;28;20058;-83
2024/01/04 04:15:39;;;;;;;6.20;2.13;;;10.40;1.00;;;8.28;100.00;99095.63;4993766;28;20488;-83
2024/01/04 04:18:06;;;;;;;4.57;2.13;;;9.90;1.00;;;8.83;100.00;99208.22;4983905;28;20903;-84
2024/01/04 04:20:34;;;;;;;8.80;2.38;;;10.30;1.00;;;8.05;100.00;99086.81;4991004;28;20042;-82
2024/01/04 04:23:01;;;;;;;7.40;2.15;;;11.00;1.00;;;8.34;100.00;99119.84;4951105;28;20121;-82
2024/01/04 04:25:28;;;;;;;5.78;2.10;;;9.90;1.00;;;8.64;100.00;99158.19;4970712;28;20066;-82
2024/01/04 04:27:55;;;;;;;5.22;1.83;;;10.00;1.00;;;8.48;100.00;99129.84;4973949;28;20089;-84
2024/01/04 04:30:23;;;;;;;5.05;1.70;;;10.00;1.00;;;8.39;100.00;99119.72;4968082;28;20061;-82
2024/01/04 04:32:50;;;;;;;4.80;2.25;;;11.40;1.00;;;8.32;100.00;99103.34;4971905;28;20057;-82
2024/01/04 04:35:17;;;;;;;6.53;1.73;;;10.20;1.00;;;8.27;100.00;99096.53;4969984;28;20146;-82
2024/01/04 04:37:44;;;;;;;4.32;1.85;;;10.40;1.00;;;8.44;100.00;99151.84;4952341;28;20046;-82
2024/01/04 04:40:12;;;;;;;6.90;1.90;;;11.20;1.00;;;8.48;100.00;99156.06;4990055;28;20046;-83
2024/01/04 04:42:42;;;;;;;8.73;2.13;;;10.00;1.00;;;8.46;100.00;99157.88;4970994;28;20127;-83
2024/01/04 04:45:09;;;;;;;4.88;1.60;;;10.30;1.00;;;8.16;100.00;99092.53;4985232;28;20038;-82
2024/01/04 04:47:40;;;;;;;3.78;1.65;;;10.00;1.00;;;8.84;100.00;99209.94;4970063;28;20050;-81
2024/01/04 04:50:08;;;;;;;4.07;1.55;;;11.40;1.00;;;8.92;100.00;99238.50;4958112;28;20049;-85
2024/01/04 04:52:35;;;;;;;5.13;1.58;;;10.10;1.00;;;8.92;100.00;99234.13;4974124;28;20177;-83
2024/01/04 04:55:03;;;;;;;5.63;1.77;;;10.00;1.00;;;8.36;100.00;99161.75;4989498;28;20048;-84
2024/01/04 04:57:34;;;;;;;6.45;2.28;;;10.00;1.00;;;7.96;100.00;99088.00;4990572;28;20061;-84
2024/01/04 05:00:04;;;;;;;3.78;1.70;;;10.00;1.00;;;8.16;100.00;99133.59;4973540;28;20042;-81
2024/01/04 05:02:31;;;;;;;4.13;1.50;;;11.00;1.00;;;8.86;100.00;99236.13;4972606;28;20677;-82
2024/01/04 05:04:58;;;;;;;3.72;1.63;;;11.30;1.00;;;8.43;100.00;99191.19;4963329;28;20098;-83
2024/01/04 05:07:25;;;;;;;3.88;1.83;;;10.00;1.00;;;8.64;100.00;99215.88;4962300;28;20133;-84
2024/01/04 05:09:53;;;;;;;4.18;2.33;;;10.00;1.00;;;8.36;100.00;99172.25;4964683;28;20654;-83
2024/01/04 05:12:20;;;;;;;3.08;1.50;;;10.80;1.00;;;8.56;100.00;99226.63;4991485;28;20572;-82
2024/01/04 05:14:47;;;;;;;5.70;1.60;;;10.00;1.00;;;8.35;100.00;99167.88;4990727;28;20441;-83
2024/01/04 05:17:16;;;;;;;5.03;1.73;;;10.00;1.00;;;8.32;100.00;99181.09;4964869;28;20054;-82
2024/01/04 05:19:44;;;;;;;3.53;1.40;;;10.00;1.00;;;8.26;100.00;99186.56;4957999;28;20140;-83
2024/01/04 05:22:12;;;;;;;3.50;1.58;;;11.50;1.00;;;8.28;100.00;99184.72;4989105;28;20087;-83
2024/01/04 05:24:39;;;;;;;3.90;1.55;;;11.10;1.00;;;8.54;100.00;99238.94;4963819;28;20061;-80
2024/01/04 05:27:06;;;;;;;4.15;1.52;;;11.10;1.00;;;8.26;100.00;99203.13;4976406;28;20066;-82
2024/01/04 05:29:33;;;;;;;7.53;1.70;;;10.50;1.00;;;8.57;100.00;99230.09;4960146;28;20078;-82
2024/01/04 05:32:02;;;;;;;8.02;2.08;;;9.90;1.00;;;8.72;100.00;99262.81;4960239;28;20054;-83
2024/01/04 05:34:32;;;;;;;5.35;2.53;;;9.90;1.00;;;8.70;100.00;99259.38;4982717;28;20058;-82
2024/01/04 05:36:59;;;;;;;4.25;1.80;;;9.90;1.00;;;8.62;100.00;99260.50;4963847;28;20062;-83
2024/01/04 05:39:27;;;;;;;5.18;3.22;;;10.10;1.00;;;8.72;100.00;99271.53;4980073;28;20128;-81
2024/01/04 05:41:54;;;;;;;4.35;2.03;;;10.60;1.00;;;8.74;100.00;99311.69;4976092;28;20050;-81
2024/01/04 05:44:21;;;;;;;6.50;2.00;;;10.50;1.00;;;8.34;100.00;99250.03;4988990;28;20046;-83
2024/01/04 05:46:48;;;;;;;6.35;2.00;;;10.10;1.00;;;8.15;100.00;99213.94;4975630;28;20477;-83
2024/01/04 05:49:16;;;;;;;7.38;1.63;;;9.90;1.00;;;8.28;100.00;99227.53;4961759;28;20141;-83
2024/01/04 05:51:43;;;;;;;6.05;1.90;;;9.90;1.00;;;7.92;100.00;99155.31;4970965;28;20040;-84
2024/01/04 05:54:11;;;;;;;4.25;1.85;;;9.90;1.00;;;8.49;100.00;99273.13;4988932;28;20065;-84
2024/01/04 05:56:38;;;;;;;4.72;2.10;;;10.60;1.00;;;8.48;100.00;99266.16;4965374;28;20054;-82
2024/01/04 05:59:06;;;;;;;6.50;2.03;;;10.70;1.00;;;8.32;100.00;99246.59;4970099;28;20042;-82
2024/01/04 06:01:33;;;;;;;5.65;1.92;;;10.60;1.00;;;8.44;100.00;99261.94;4969853;28;20053;-83
2024/01/04 06:04:01;;;;;;;6.80;2.13;;;10.40;1.00;;;8.32;100.00;99233.50;4977539;28;20046;-82
2024/01/04 06:06:28;;;;;;;6.13;2.10;;;10.40;1.00;;;8.28;100.00;99217.06;4980116;28;20108;-83
2024/01/04 06:08:55;;;;;;;5.88;2.33;;;9.90;1.00;;;8.20;100.00;99234.78;4960360;28;20118;-82
2024/01/04 06:11:22;;;;;;;5.75;3.17;;;9.90;1.00;;;8.15;100.00;99219.19;4972241;28;20050;-83
2024/01/04 06:13:50;;;;;;;8.15;2.83;;;10.10;1.00;;;7.87;100.00;99206.97;4974692;28;20073;-83
2024/01/04 06:16:18;;;;;;;9.57;2.50;;;9.80;1.00;;;8.34;100.00;99294.59;4991822;28;20046;-82
2024/01/04 06:18:45;;;;;;;7.95;2.83;;;10.60;1.00;;;8.22;100.00;99270.50;4993535;28;20050;-83
2024/01/04 06:21:16;;;;;;;5.10;2.08;;;9.90;1.00;;;8.27;100.00;99253.78;4974255;28;20046;-82
2024/01/04 06:23:43;;;;;;;5.63;2.33;;;11.40;1.00;;;8.27;100.00;99280.81;4966511;28;20058;-82
2024/01/04 06:26:20;;;;;;;7.18;3.42;;;9.90;1.00;;;8.76;100.00;99356.22;4975163;28;20502;-83
2024/01/04 06:28:47;;;;;;;12.13;4.25;;;11.30;1.00;;;8.18;100.00;99263.63;4995519;28;20042;-83
2024/01/04 06:31:17;;;;;;;10.13;3.63;;;10.50;1.00;;;8.33;100.00;99282.41;4983625;28;20042;-82
2024/01/04 06:33:45;;;;;;;10.43;2.47;;;10.00;1.00;;;8.25;100.00;99266.91;4994660;28;20141;-83
2024/01/04 06:36:13;;;;;;;5.95;2.33;;;10.60;1.00;;;8.31;100.00;99278.97;4989966;28;20073;-83
2024/01/04 06:38:40;;;;;;;6.72;2.80;;;9.30;1.00;;;8.43;100.00;99315.28;4991039;28;20394;-81
2024/01/04 06:41:10;;;;;;;4.88;2.67;;;10.70;1.00;;;8.24;100.00;99278.31;4975646;28;20042;-82
2024/01/04 06:43:37;;;;;;;9.05;2.75;;;10.40;1.00;;;8.17;100.00;99271.56;4975098;28;20134;-83
2024/01/04 06:46:05;;;;;;;5.55;2.63;;;10.70;1.00;;;8.05;100.00;99250.06;4988488;28;20043;-84
2024/01/04 06:48:32;;;;;;;9.70;2.33;;;8.80;1.00;;;8.35;100.00;99314.66;4987595;28;20050;-82
2024/01/04 06:50:59;;;;;;;6.70;1.85;;;11.10;1.00;;;8.56;100.00;99351.63;4975790;28;20046;-82
2024/01/04 06:53:27;;;;;;;3.63;1.70;;;9.80;1.00;;;8.71;100.00;99386.97;4973757;28;20057;-82
2024/01/04 06:55:54;;;;;;;5.35;2.30;;;10.70;1.00;;;8.67;100.00;99360.00;4989612;28;20076;-83
2024/01/04 06:58:22;;;;;;;4.85;1.70;;;10.00;1.00;;;8.37;100.00;99316.31;4944819;28;20046;-83
2024/01/04 07:00:49;;;;;;;5.20;2.22;;;11.40;1.00;;;8.46;100.00;99364.97;4971970;28;20057;-83
2024/01/04 07:03:19;;;;;;;6.60;1.83;;;10.00;1.00;;;8.56;100.00;99388.34;4990621;28;20365;-82
2024/01/04 07:05:47;;;;;;;5.07;1.80;;;9.90;1.00;;;8.28;100.00;99315.75;4942956;28;20470;-83
2024/01/04 07:08:14;;;;;;;4.00;1.67;;;10.10;1.00;;;7.83;100.00;99252.50;4975572;28;20078;-84
2024/01/04 07:10:42;;;;;;;4.07;2.10;;;10.20;1.00;;;8.26;100.00;99354.28;4975940;28;20069;-84
2024/01/04 07:13:09;;;;;;;5.22;1.88;;;9.90;1.00;;;7.99;100.00;99293.94;4993332;28;20110;-84
2024/01/04 07:15:36;;;;;;;3.63;1.63;;;10.80;1.00;;;8.19;100.00;99346.56;4977033;28;20137;-85
2024/01/04 07:18:03;;;;;;;6.30;1.52;;;10.60;1.00;;;8.01;100.00;99352.38;4977233;28;20034;-83
2024/01/04 07:20:32;;;;;;;6.60;1.92;;;9.80;1.00;;;8.10;100.00;99359.97;4986544;28;20078;-85
2024/01/04 07:22:59;;;;;;;3.78;1.45;;;10.30;1.00;;;8.40;100.00;99409.75;4979430;28;20042;-83
2024/01/04 07:25:27;;;;;;;4.07;1.98;;;10.70;1.00;;;7.99;100.00;99351.56;4984417;28;20042;-84
2024/01/04 07:27:54;;;;;;;6.13;1.58;;;11.10;1.00;;;8.05;100.00;99361.88;4996469;28;20129;-84
2024/01/04 07:30:22;;;;;;;3.08;2.10;;;9.70;1.00;;;8.19;100.00;99401.59;4968511;28;20133;-84
2024/01/04 07:32:49;;;;;;;5.43;2.50;;;11.00;1.00;;;8.40;100.00;99424.59;4980973;28;20050;-84
2024/01/04 07:35:19;;;;;;;4.95;1.90;;;11.00;1.00;;;8.27;100.00;99424.97;4960668;28;20042;-86
2024/01/04 07:37:46;;;;;;;7.10;2.25;;;9.70;1.00;;;7.83;100.00;99341.53;4992727;28;20057;-83
2024/01/04 07:40:13;;;;;;;8.10;2.63;;;9.70;1.00;;;8.02;100.00;99386.41;4982547;28;20093;-83
2024/01/04 07:42:41;;;;;;;3.67;1.65;;;9.60;1.00;;;7.86;100.00;99366.78;4999508;28;20042;-87
2024/01/04 07:45:09;;;;;;;6.40;2.83;;;9.70;1.00;;;7.87;100.00;99374.59;4980820;28;20050;-82
2024/01/04 07:47:36;;;;;;;8.63;2.72;;;9.60;1.00;;;7.90;100.00;99382.38;4978314;28;20038;-83
2024/01/04 07:50:08;;;;;;;6.78;2.72;;;9.60;1.00;;;7.80;100.00;99378.31;4979628;28;20113;-83
2024/01/04 07:52:35;;;;;;;7.25;2.58;;;9.60;1.00;;;7.47;100.00;99344.31;4991933;28;20042;-83
2024/01/04 07:55:03;;;;;;;8.00;2.75;;;10.90;1.00;;;7.93;100.00;99390.16;4974126;28;20229;-83
2024/01/04 07:57:34;;;;;;;9.15;3.67;;;9.60;1.00;;;7.66;100.00;99360.38;4991414;28;20525;-83
2024/01/04 08:00:01;;;;;;;4.78;2.50;;;9.00;1.00;;;7.54;100.00;99335.38;4991027;28;20050;-83
2024/01/04 08:02:39;;;;;;;10.65;2.38;;;9.80;1.00;;;8.08;100.00;99419.44;4994821;28;20052;-82
2024/01/04 08:05:09;;;;;;;7.03;2.70;;;10.20;1.00;;;7.88;100.00;99409.50;4982897;28;20764;-82
2024/01/04 08:07:37;;;;;;;10.60;3.22;;;9.60;1.00;;;7.50;100.00;99346.84;4982344;28;20105;-82
2024/01/04 08:10:05;;;;;;;11.38;2.20;;;9.60;1.00;;;8.53;100.00;99522.16;4979356;28;20050;-81
2024/01/04 08:12:32;;;;;;;8.07;3.10;;;9.60;1.00;;;7.98;100.00;99423.19;4978812;28;20137;-81
2024/01/04 08:14:59;;;;;;;15.35;3.78;;;10.60;1.00;;;7.51;100.00;99362.50;4993655;28;20112;-82
2024/01/04 08:17:26;;;;;;;7.90;2.22;;;10.70;1.00;;;7.35;100.00;99356.81;4993350;28;20046;-82
2024/01/04 08:19:54;;;;;;;6.97;2.40;;;9.80;1.00;;;7.67;100.00;99375.19;4975484;28;20097;-82
2024/01/04 08:22:21;;;;;;;8.85;3.40;;;9.50;1.00;;;7.88;100.00;99439.19;4977482;28;20109;-82
2024/01/04 08:24:48;;;;;;;10.70;2.55;;;9.60;1.00;;;8.05;100.00;99438.69;4976786;28;20058;-83
2024/01/04 08:27:19;;;;;;;9.00;2.80;;;9.60;1.00;;;7.88;100.00;99433.97;4977856;28;20034;-81
2024/01/04 08:29:48;;;;;;;10.15;2.78;;;10.80;1.00;;;7.86;100.00;99434.88;4962750;28;20162;-83
2024/01/04 08:32:19;;;;;;;10.70;3.07;;;10.50;1.00;;;8.33;100.00;99503.44;4960121;28;20045;-83
2024/01/04 08:34:46;;;;;;;9.13;3.20;;;8.80;1.00;;;8.56;100.00;99528.13;4974970;28;20047;-83
2024/01/04 08:37:14;;;;;;;13.23;3.33;;;9.70;1.00;;;7.86;100.00;99440.13;4962996;28;20084;-82
2024/01/04 08:39:42;;;;;;;7.45;3.08;;;9.60;1.00;;;7.87;100.00;99437.44;4979513;28;20054;-81
2024/01/04 08:42:09;;;;;;;9.32;3.58;;;10.30;1.00;;;7.84;100.00;99440.16;4980253;28;20722;-83
2024/01/04 08:44:36;;;;;;;43.08;16.63;;;9.70;99.90;;;7.97;100.00;99442.44;4995342;28;20042;-83
2024/01/04 08:47:04;;;;;;;12.20;4.93;;;9.70;99.90;;;7.98;100.00;99434.56;4996678;28;20066;-83
2024/01/04 08:49:31;;;;;;;14.40;4.38;;;9.60;99.90;;;8.40;100.00;99519.84;4993799;28;20081;-82
2024/01/04 08:51:58;;;;;;;16.15;6.10;;;9.70;99.90;;;7.55;100.00;99378.97;4976680;28;20058;-82
2024/01/04 08:54:29;;;;;;;12.13;4.65;;;9.80;99.90;;;7.99;100.00;99444.13;4975693;28;20568;-82
2024/01/04 08:56:58;;;;;;;10.67;2.90;;;10.20;99.90;;;8.41;100.00;99525.94;4975342;28;20117;-82
2024/01/04 08:59:25;;;;;;;15.43;3.83;;;9.80;21.00;;;8.14;100.00;99471.63;4975839;28;20042;-82
2024/01/04 09:01:52;;;;;;;11.70;3.20;;;9.80;1.00;;;8.13;100.00;99485.66;4972977;28;20058;-81
2024/01/04 09:04:20;;;;;;;13.30;4.10;;;9.90;99.90;;;8.02;100.00;99433.56;4980511;28;20061;-82
2024/01/04 09:06:48;;;;;;;12.82;3.80;;;10.00;1.00;;;8.81;100.00;99569.38;4975070;28;20049;-83
2024/01/04 09:09:17;;;;;;;11.38;3.30;;;9.90;99.90;;;8.64;100.00;99504.31;4968954;28;20052;-82
2024/01/04 09:11:48;;;;;;;12.10;3.97;;;10.00;99.90;;;8.27;100.00;99498.34;4956322;28;20050;-83
2024/01/04 09:14:16;;;;;;;18.33;3.80;;;10.00;99.90;;;8.33;100.00;99489.44;4948693;28;20050;-82
2024/01/04 09:16:44;;;;;;;9.93;3.60;;;10.00;75.30;;;8.42;100.00;99504.91;4958736;28;20055;-81
2024/01/04 09:19:16;;;;;;;11.98;3.42;;;10.70;28.20;;;8.64;100.00;99509.56;4958665;28;20153;-82
2024/01/04 09:21:47;;;;;;;9.70;3.72;;;10.10;1.00;;;9.13;100.00;99587.69;4972087;28;20043;-81
2024/01/04 09:24:18;;;;;;;7.60;3.20;;;10.10;12.40;;;8.72;100.00;99514.56;4974312;28;20133;-82
2024/01/04 09:26:46;;;;;;;10.10;3.40;;;10.20;1.00;;;8.56;100.00;99487.97;4977434;28;20047;-82
2024/01/04 09:29:16;;;;;;;7.00;2.97;;;10.10;1.00;;;8.41;100.00;99466.50;4943637;28;20043;-84
2024/01/04 09:31:44;;;;;;;7.32;2.50;;;10.20;1.00;;;8.63;100.00;99516.59;4941550;28;20051;-84
2024/01/04 09:34:11;;;;;;;10.80;3.85;;;10.20;99.90;;;8.38;100.00;99459.59;4939954;28;20087;-83
2024/01/04 09:36:38;;;;;;;15.93;3.97;;;10.20;99.90;;;8.55;100.00;99510.69;4955476;28;20105;-83
2024/01/04 09:39:07;;;;;;;8.77;3.00;;;10.20;99.90;;;8.72;100.00;99504.97;4938462;28;20049;-83
2024/01/04 09:41:44;;;;;;;14.13;3.33;;;11.30;85.10;;;8.97;100.00;99563.69;4953479;28;20051;-82
2024/01/04 09:44:13;;;;;;;11.18;3.33;;;11.50;99.90;;;8.89;100.00;99558.66;4979707;28;20069;-82
2024/01/04 09:46:42;;;;;;;8.18;2.70;;;10.40;1.00;;;9.25;100.00;99603.06;4973785;28;20074;-81
2024/01/04 09:49:13;;;;;;;14.10;3.33;;;9.40;1.00;;;8.93;100.00;99547.16;4971282;28;20066;-82
2024/01/04 09:51:42;;;;;;;16.95;3.47;;;11.10;1.00;;;8.79;100.00;99529.25;4980060;28;20074;-81
2024/01/04 09:54:11;;;;;;;11.68;3.70;;;10.30;1.00;;;8.72;100.00;99533.81;4985540;28;20547;-83
2024/01/04 09:56:44;;;;;;;11.88;3.63;;;11.10;1.00;;;9.03;100.00;99582.72;4993548;28;20489;-83
2024/01/04 09:59:16;;;;;;;13.40;3.15;;;10.40;1.00;;;8.78;100.00;99536.22;4980051;28;20497;-83
2024/01/04 10:01:46;;;;;;;10.90;2.30;;;10.40;99.90;;;8.77;100.00;99516.16;4974400;28;20055;-84
2024/01/04 10:04:19;;;;;;;14.55;3.42;;;11.80;99.90;;;8.90;100.00;99556.00;4992663;28;20039;-82
2024/01/04 10:06:50;;;;;;;9.88;3.30;;;10.90;1.00;;;8.75;100.00;99504.84;4990426;28;20051;-82
2024/01/04 10:10:04;;;;;;;6.10;2.60;;;11.90;1.00;;;9.29;100.00;99585.44;4977714;28;20054;-81
2024/01/04 10:12:32;;;;;;;10.75;3.10;;;10.70;99.90;;;9.55;100.00;99604.78;4990687;28;20461;-81
2024/01/04 10:15:00;;;;;;;12.20;3.15;;;11.70;99.90;;;9.32;100.00;99590.59;4992744;28;20073;-82
2024/01/04 10:17:27;;;;;;;10.95;2.85;;;10.70;1.00;;;9.01;100.00;99515.44;4955819;28;20425;-84
2024/01/04 10:19:55;;;;;;;11.38;3.30;;;10.70;99.90;;;9.02;100.00;99532.91;4990719;28;20047;-83
2024/01/04 10:22:23;;;;;;;7.50;2.33;;;10.70;93.50;;;8.96;100.00;99520.84;4977887;28;20078;-82
2024/01/04 10:24:54;;;;;;;9.98;2.78;;;10.60;1.00;;;9.08;100.00;99578.19;4977162;28;20042;-83
2024/01/04 10:27:22;;;;;;;8.70;2.63;;;11.20;1.00;;;8.70;100.00;99511.13;4987967;28;20121;-82
2024/01/04 10:29:51;;;;;;;12.13;3.20;;;10.50;1.00;;;9.08;100.00;99585.22;4976034;28;20065;-81